Vlore, Albania
Current Conditions -  °F | °C
As of 5:50 PM on Thursday 23 Oct 2014 (Local Time) from LGKR Reporting Station
Light Rain Light Rain  
Wind Chill: 57°   Ceiling: 8000
Heat Index: 57°   Visibility: 6mi
Dew Point: 52°   Wind: 0mph
Humidity: 82%   Direction: NA
Pressure: 29.71"   Gusts: NA
Location:  40.47°N, 19.49°E
Report Text: LGKR 231550Z 00000KT 9999 -RA FEW018TCU FEW020CB SCT030 BKN08014/11 Q1006 NOSIG
Loading
Personal Weather Stations






























Interactive Weather Map
Tropical Storm Tracking
New forecast layout! Learn more

10-Day Weather Forecast

Advertisements
Track Severe Weather on mobile